Time;durP1;ratioP1;P1;durP2;ratioP2;P2;SDS_P1;SDS_P2;PMS_P1;PMS_P2;Temp;Humidity;BMP_temperature;BMP_pressure;BME280_temperature;BME280_humidity;BME280_pressure;Samples;Min_cycle;Max_cycle;Signal;HPM_P1;HPM_P2
2023/11/19 00:00:14;;;;;;;1.90;1.80;;;;;;;3.83;70.23;93245.50;511766;28;3108;-68
2023/11/19 00:00:29;;;;;;;2.33;1.80;;;;;;;3.85;70.32;93240.25;509086;28;2487;-68
2023/11/19 00:00:45;;;;;;;3.45;2.08;;;;;;;3.83;70.47;93245.50;510215;28;1643;-69
2023/11/19 00:01:00;;;;;;;3.00;2.33;;;;;;;3.82;70.57;93242.00;508828;28;1685;-68
2023/11/19 00:01:16;;;;;;;2.90;2.67;;;;;;;3.78;70.70;93251.72;510960;28;2242;-68
2023/11/19 00:01:32;;;;;;;3.00;2.80;;;;;;;3.75;70.90;93247.28;509950;28;1807;-69
2023/11/19 00:01:47;;;;;;;3.20;2.90;;;;;;;3.74;70.95;93243.84;510127;28;3791;-68
2023/11/19 00:02:03;;;;;;;2.78;2.58;;;;;;;3.73;71.12;93252.50;509277;28;2063;-68
2023/11/19 00:02:19;;;;;;;2.47;2.27;;;;;;;3.71;70.80;93253.03;510375;28;1527;-69
2023/11/19 00:02:34;;;;;;;2.55;2.35;;;;;;;3.71;70.97;93244.09;512927;28;1860;-69
2023/11/19 00:02:49;;;;;;;3.10;2.90;;;;;;;3.66;71.56;93245.63;513459;28;2048;-68
2023/11/19 00:03:05;;;;;;;3.15;2.92;;;;;;;3.64;70.94;93247.38;513260;28;1649;-67
2023/11/19 00:03:21;;;;;;;2.30;2.20;;;;;;;3.63;71.10;93248.63;512828;28;1770;-68
2023/11/19 00:03:36;;;;;;;2.33;2.23;;;;;;;3.63;71.57;93248.63;511100;28;1073;-69
2023/11/19 00:03:53;;;;;;;2.35;2.25;;;;;;;3.61;71.69;93249.16;512186;28;2306;-68
2023/11/19 00:04:08;;;;;;;2.45;2.35;;;;;;;3.62;71.83;93247.13;512643;28;1144;-69
2023/11/19 00:04:24;;;;;;;2.88;2.65;;;;;;;3.60;71.61;93241.44;514012;28;1803;-70
2023/11/19 00:04:39;;;;;;;3.53;2.90;;;;;;;3.56;72.22;93241.00;513433;28;1923;-69
2023/11/19 00:04:55;;;;;;;3.33;3.05;;;;;;;3.59;72.07;93254.38;511830;28;1639;-68
2023/11/19 00:05:13;;;;;;;3.53;3.23;;;;;;;3.59;71.97;93245.44;510751;28;1694;-68
2023/11/19 00:05:29;;;;;;;3.15;2.95;;;;;;;3.60;72.24;93252.38;513044;28;1977;-68
2023/11/19 00:05:45;;;;;;;2.85;2.65;;;;;;;3.60;72.21;93260.56;510419;28;2407;-70
2023/11/19 00:06:01;;;;;;;2.80;2.60;;;;;;;3.55;71.88;93247.72;511553;28;1961;-68
2023/11/19 00:06:16;;;;;;;3.17;2.88;;;;;;;3.53;72.09;93250.94;511694;28;1871;-67
2023/11/19 00:06:32;;;;;;;3.85;3.33;;;;;;;3.54;72.31;93257.13;512634;28;1039;-68
2023/11/19 00:06:47;;;;;;;3.60;3.30;;;;;;;3.53;72.54;93253.66;511399;28;1890;-69
2023/11/19 00:07:05;;;;;;;3.38;3.17;;;;;;;3.53;72.08;93252.94;511455;28;1972;-69
2023/11/19 00:07:20;;;;;;;3.35;3.15;;;;;;;3.51;72.38;93255.44;512708;28;1613;-69
2023/11/19 00:07:36;;;;;;;3.70;3.40;;;;;;;3.47;72.00;93250.25;511636;28;3177;-69
2023/11/19 00:07:51;;;;;;;3.27;3.07;;;;;;;3.46;71.86;93262.41;510865;28;2366;-68
2023/11/19 00:08:08;;;;;;;2.90;2.78;;;;;;;3.46;71.97;93254.22;511307;28;2099;-69
2023/11/19 00:08:24;;;;;;;2.90;2.70;;;;;;;3.48;72.46;93254.47;513742;28;981;-69
2023/11/19 00:08:40;;;;;;;3.20;3.00;;;;;;;3.45;72.33;93265.63;511859;28;1807;-69
2023/11/19 00:08:55;;;;;;;3.53;3.27;;;;;;;3.47;72.43;93252.97;513291;28;2036;-68
2023/11/19 00:09:11;;;;;;;3.38;3.08;;;;;;;3.49;73.05;93255.94;510458;28;1899;-69
2023/11/19 00:09:27;;;;;;;3.10;2.90;;;;;;;3.42;72.63;93255.75;512223;28;1766;-68
2023/11/19 00:09:43;;;;;;;3.23;3.03;;;;;;;3.35;73.28;93251.56;511919;28;1705;-68
2023/11/19 00:09:59;;;;;;;3.30;3.10;;;;;;;3.38;72.92;93260.75;512805;28;3148;-68
2023/11/19 00:10:18;;;;;;;2.88;2.72;;;;;;;3.37;72.98;93259.25;511903;28;1645;-68
2023/11/19 00:10:33;;;;;;;2.90;2.70;;;;;;;3.37;73.08;93264.72;510839;28;1915;-67
2023/11/19 00:10:50;;;;;;;3.20;3.00;;;;;;;3.39;72.88;93256.75;511548;28;2089;-67
2023/11/19 00:11:06;;;;;;;2.95;2.75;;;;;;;3.40;73.03;93258.25;510787;28;1978;-67
2023/11/19 00:11:21;;;;;;;2.95;2.75;;;;;;;3.35;74.08;93259.75;512665;28;3450;-68
2023/11/19 00:11:37;;;;;;;3.22;3.03;;;;;;;3.35;73.73;93254.31;510802;28;1818;-68
2023/11/19 00:11:53;;;;;;;3.00;2.80;;;;;;;3.37;73.96;93254.53;512683;28;1614;-68
2023/11/19 00:12:08;;;;;;;3.27;3.07;;;;;;;3.38;73.21;93256.00;512462;28;1610;-68
2023/11/19 00:12:24;;;;;;;3.30;3.10;;;;;;;3.37;73.92;93253.78;513485;28;1108;-68
2023/11/19 00:12:44;;;;;;;3.13;2.90;;;;;;;3.37;73.84;93256.53;511934;28;2020;-67
2023/11/19 00:13:00;;;;;;;3.00;2.78;;;;;;;3.39;73.58;93251.28;512929;28;1569;-68
2023/11/19 00:13:16;;;;;;;2.97;2.77;;;;;;;3.38;73.94;93247.09;511121;28;3994;-68
2023/11/19 00:13:31;;;;;;;2.78;2.65;;;;;;;3.40;73.84;93244.59;511287;28;2139;-68
2023/11/19 00:13:47;;;;;;;2.72;2.63;;;;;;;3.40;73.76;93248.06;511088;28;2209;-68
2023/11/19 00:14:02;;;;;;;2.73;2.63;;;;;;;3.44;73.39;93256.72;512397;28;978;-68
2023/11/19 00:14:18;;;;;;;2.83;2.63;;;;;;;3.46;73.45;93253.47;512516;28;3807;-67
2023/11/19 00:14:34;;;;;;;2.93;2.73;;;;;;;3.47;73.70;93247.50;512880;28;1196;-69
2023/11/19 00:14:50;;;;;;;3.20;2.90;;;;;;;3.48;73.50;93246.28;511702;28;3084;-68
2023/11/19 00:15:08;;;;;;;2.95;2.72;;;;;;;3.42;73.58;93242.81;511003;28;1037;-68
2023/11/19 00:15:25;;;;;;;2.70;2.50;;;;;;;3.46;73.25;93250.75;510644;28;3154;-68
2023/11/19 00:15:40;;;;;;;2.85;2.65;;;;;;;3.43;73.16;93249.78;512991;28;994;-67
2023/11/19 00:15:56;;;;;;;3.13;2.90;;;;;;;3.40;73.02;93245.31;511432;28;3169;-66
2023/11/19 00:16:12;;;;;;;6.43;2.80;;;;;;;3.43;73.20;93249.03;511575;28;1180;-67
2023/11/19 00:16:27;;;;;;;5.70;2.60;;;;;;;3.45;73.18;93252.00;513726;28;1618;-67
2023/11/19 00:16:43;;;;;;;2.70;2.58;;;;;;;3.46;72.99;93250.75;512639;28;2127;-67
2023/11/19 00:16:59;;;;;;;2.75;2.65;;;;;;;3.47;73.05;93252.22;510887;28;2011;-68
2023/11/19 00:17:14;;;;;;;3.13;2.93;;;;;;;3.46;72.89;93256.97;511070;28;2073;-68
2023/11/19 00:17:30;;;;;;;3.67;3.47;;;;;;;3.46;72.98;93254.22;511867;28;969;-68
2023/11/19 00:17:47;;;;;;;4.60;4.30;;;;;;;3.45;73.07;93252.75;510764;28;2316;-68
2023/11/19 00:18:04;;;;;;;4.60;4.30;;;;;;;3.44;73.44;93251.28;513289;28;2014;-68
2023/11/19 00:18:20;;;;;;;4.25;3.95;;;;;;;3.45;72.98;93257.44;512886;28;3131;-68
2023/11/19 00:18:36;;;;;;;3.67;3.45;;;;;;;3.45;72.97;93249.25;513277;28;3397;-68
2023/11/19 00:18:52;;;;;;;3.63;3.43;;;;;;;3.48;73.47;93253.72;513348;28;1890;-68
2023/11/19 00:19:08;;;;;;;3.43;3.23;;;;;;;3.45;73.42;93249.25;512982;28;1744;-68
2023/11/19 00:19:23;;;;;;;3.30;3.10;;;;;;;3.48;73.06;93251.00;511181;28;1570;-68
2023/11/19 00:19:39;;;;;;;5.70;5.40;;;;;;;3.48;72.96;93251.72;509211;28;2396;-68
2023/11/19 00:19:54;;;;;;;5.88;5.57;;;;;;;3.50;72.89;93249.22;509615;28;1579;-68
2023/11/19 00:20:14;;;;;;;3.53;3.33;;;;;;;3.28;73.15;93218.63;510225;28;1808;-67
2023/11/19 00:20:29;;;;;;;5.45;5.15;;;;;;;3.50;73.49;93249.22;508863;28;2597;-67
2023/11/19 00:20:45;;;;;;;7.07;6.68;;;;;;;3.46;73.65;93254.22;510007;28;1586;-67
2023/11/19 00:21:02;;;;;;;6.30;6.00;;;;;;;3.46;73.53;93254.22;509824;28;3024;-68
2023/11/19 00:21:17;;;;;;;3.80;3.63;;;;;;;3.47;73.15;93255.69;510608;28;3191;-67
2023/11/19 00:21:33;;;;;;;2.85;2.72;;;;;;;3.48;73.47;93254.47;512684;28;3327;-67
2023/11/19 00:21:48;;;;;;;3.40;3.20;;;;;;;3.47;73.10;93252.22;511470;28;1901;-67
2023/11/19 00:22:04;;;;;;;3.42;3.22;;;;;;;3.50;73.29;93256.69;511267;28;1803;-67
2023/11/19 00:22:21;;;;;;;3.57;3.37;;;;;;;3.52;73.65;93251.44;510214;28;2643;-67
2023/11/19 00:22:36;;;;;;;3.50;3.30;;;;;;;3.53;73.41;93256.38;510904;28;3198;-67
2023/11/19 00:22:52;;;;;;;3.60;3.40;;;;;;;3.55;73.22;93259.34;512193;28;4075;-67
2023/11/19 00:23:07;;;;;;;3.70;3.42;;;;;;;3.56;73.24;93255.38;509485;28;2684;-67
2023/11/19 00:23:23;;;;;;;3.37;3.17;;;;;;;3.58;73.62;93263.81;511184;28;1341;-67
2023/11/19 00:23:38;;;;;;;3.40;3.20;;;;;;;3.57;73.50;93256.84;509663;28;3149;-67
2023/11/19 00:23:54;;;;;;;3.38;3.17;;;;;;;3.54;73.65;93254.41;511069;28;990;-67
2023/11/19 00:24:11;;;;;;;2.90;2.70;;;;;;;3.55;73.30;93253.16;509664;28;1974;-67
2023/11/19 00:24:26;;;;;;;2.40;2.30;;;;;;;3.54;73.50;93259.88;511402;28;1033;-67
2023/11/19 00:24:41;;;;;;;2.92;2.72;;;;;;;3.53;72.95;93261.84;510598;28;3416;-67
2023/11/19 00:24:57;;;;;;;3.03;2.83;;;;;;;3.51;73.18;93256.16;510139;28;1078;-67
2023/11/19 00:25:13;;;;;;;2.85;2.70;;;;;;;3.51;72.92;93261.63;512487;28;2091;-68
2023/11/19 00:25:28;;;;;;;2.90;2.70;;;;;;;3.52;73.59;93260.38;510776;28;2592;-68
2023/11/19 00:25:44;;;;;;;3.20;2.90;;;;;;;3.51;72.92;93260.91;512084;28;1908;-67
2023/11/19 00:25:59;;;;;;;2.83;2.72;;;;;;;3.52;73.45;93257.66;511238;28;1985;-67
2023/11/19 00:26:15;;;;;;;2.70;2.60;;;;;;;3.53;73.58;93259.13;512212;28;1715;-68
2023/11/19 00:26:30;;;;;;;2.93;2.83;;;;;;;3.53;73.23;93264.56;511082;28;3717;-66
2023/11/19 00:26:46;;;;;;;3.45;3.25;;;;;;;3.52;73.26;93259.63;511545;28;1945;-68
2023/11/19 00:27:02;;;;;;;3.80;3.60;;;;;;;3.53;73.57;93264.56;510855;28;2402;-67
2023/11/19 00:27:17;;;;;;;3.60;3.40;;;;;;;3.55;73.25;93264.09;513588;28;2073;-67
2023/11/19 00:27:33;;;;;;;3.00;2.80;;;;;;;3.55;73.62;93264.09;511278;28;1582;-67
2023/11/19 00:27:50;;;;;;;3.05;2.85;;;;;;;3.42;73.26;93234.63;511203;28;1918;-67
2023/11/19 00:28:05;;;;;;;3.33;3.15;;;;;;;3.57;73.78;93264.31;511722;28;1708;-67
2023/11/19 00:28:21;;;;;;;3.27;3.10;;;;;;;3.56;73.72;93260.84;512856;28;1704;-67
2023/11/19 00:28:38;;;;;;;3.42;3.22;;;;;;;3.56;73.52;93262.81;512836;28;1929;-67
2023/11/19 00:28:55;;;;;;;3.28;3.08;;;;;;;3.57;73.73;93259.59;511963;28;1798;-67
2023/11/19 00:29:12;;;;;;;3.30;3.17;;;;;;;3.56;73.79;93257.38;512991;28;1934;-67
2023/11/19 00:29:28;;;;;;;3.55;3.35;;;;;;;3.57;74.01;93261.59;512138;28;1813;-67
2023/11/19 00:29:46;;;;;;;3.00;2.90;;;;;;;3.54;74.29;93260.63;511513;28;2051;-67
2023/11/19 00:30:02;;;;;;;2.67;2.58;;;;;;;3.56;73.71;93252.66;512860;28;2115;-67
2023/11/19 00:30:17;;;;;;;2.60;2.40;;;;;;;3.59;73.41;93254.38;512481;28;1962;-67
2023/11/19 00:30:33;;;;;;;2.72;2.53;;;;;;;3.61;73.76;93259.31;509225;28;1806;-67
2023/11/19 00:30:49;;;;;;;2.93;2.73;;;;;;;3.62;73.73;93260.78;511382;28;1935;-67
2023/11/19 00:31:04;;;;;;;3.03;2.83;;;;;;;3.63;73.78;93257.56;512603;28;3364;-68
2023/11/19 00:31:20;;;;;;;3.20;3.00;;;;;;;3.64;73.53;93259.03;513913;28;1771;-67
2023/11/19 00:31:36;;;;;;;3.30;3.10;;;;;;;3.65;73.47;93254.31;508373;28;3925;-67
2023/11/19 00:31:52;;;;;;;3.23;3.03;;;;;;;3.66;73.68;93264.00;510049;28;1566;-67
2023/11/19 00:32:07;;;;;;;3.13;2.92;;;;;;;3.66;73.21;93262.00;510205;28;1329;-67
2023/11/19 00:32:23;;;;;;;3.13;2.92;;;;;;;3.66;73.94;93259.28;510881;28;1835;-67
2023/11/19 00:32:39;;;;;;;3.08;2.80;;;;;;;3.67;73.73;93260.00;509338;28;1007;-67
2023/11/19 00:32:54;;;;;;;3.40;3.10;;;;;;;3.66;73.33;93253.09;509866;28;3138;-67
2023/11/19 00:33:10;;;;;;;3.10;2.90;;;;;;;3.64;73.56;93253.56;510050;28;1946;-67
2023/11/19 00:33:25;;;;;;;3.30;3.10;;;;;;;3.64;74.11;93250.84;510824;28;1642;-67
2023/11/19 00:33:41;;;;;;;3.33;3.13;;;;;;;3.65;73.62;93251.59;509987;28;1704;-67
2023/11/19 00:33:56;;;;;;;2.87;2.67;;;;;;;3.66;74.11;93250.34;511611;28;4067;-67
2023/11/19 00:34:12;;;;;;;3.20;3.00;;;;;;;3.58;74.26;93252.13;513009;28;2126;-68
2023/11/19 00:34:27;;;;;;;3.47;3.27;;;;;;;3.58;74.22;93252.13;512460;28;1830;-68
2023/11/19 00:34:47;;;;;;;2.78;2.67;;;;;;;3.56;74.18;93249.94;512257;28;3333;-67
2023/11/19 00:35:03;;;;;;;2.22;2.13;;;;;;;3.58;74.48;93252.88;511635;28;1725;-68
2023/11/19 00:35:18;;;;;;;6.13;5.78;;;;;;;3.55;74.32;93251.16;511933;28;4078;-67
2023/11/19 00:35:34;;;;;;;7.17;6.77;;;;;;;3.56;74.29;93249.94;511447;28;2453;-67
2023/11/19 00:35:50;;;;;;;3.63;3.42;;;;;;;3.57;74.64;93254.13;513956;28;1915;-67
2023/11/19 00:36:06;;;;;;;3.75;3.55;;;;;;;3.59;74.77;93250.91;510179;28;3203;-67
2023/11/19 00:36:23;;;;;;;3.88;3.67;;;;;;;3.60;74.39;93252.38;511449;28;2209;-67
2023/11/19 00:36:39;;;;;;;3.45;3.20;;;;;;;3.62;74.37;93249.88;512794;28;1849;-67
2023/11/19 00:36:55;;;;;;;3.08;2.80;;;;;;;3.64;74.42;93250.09;513252;28;1587;-67
2023/11/19 00:37:11;;;;;;;2.58;2.38;;;;;;;3.65;74.72;93248.88;510607;28;2154;-67
2023/11/19 00:37:26;;;;;;;2.35;2.25;;;;;;;3.67;74.38;93251.81;511122;28;1842;-67
2023/11/19 00:37:48;;;;;;;2.73;2.63;;;;;;;3.67;74.41;93251.81;511092;28;3045;-67
2023/11/19 00:38:04;;;;;;;3.20;3.00;;;;;;;3.70;74.90;93256.28;511310;28;1673;-67
2023/11/19 00:38:19;;;;;;;3.30;3.10;;;;;;;3.69;74.70;93254.78;512120;28;1814;-67
2023/11/19 00:38:35;;;;;;;3.67;3.38;;;;;;;3.71;74.64;93260.47;513240;28;1768;-67
2023/11/19 00:38:52;;;;;;;4.23;3.93;;;;;;;3.68;74.85;93251.31;512046;28;3042;-67
2023/11/19 00:39:07;;;;;;;3.55;3.35;;;;;;;3.69;74.13;93247.34;510609;28;2058;-68
2023/11/19 00:39:23;;;;;;;2.90;2.70;;;;;;;3.72;74.41;93259.25;512031;28;1821;-67
2023/11/19 00:39:38;;;;;;;2.92;2.65;;;;;;;3.73;74.29;93253.25;512028;28;1978;-67
2023/11/19 00:39:56;;;;;;;3.00;2.47;;;;;;;3.73;74.29;93252.50;512456;28;2739;-67
2023/11/19 00:40:11;;;;;;;2.97;2.67;;;;;;;3.75;73.97;93250.00;511681;28;3265;-67
2023/11/19 00:40:27;;;;;;;3.25;3.05;;;;;;;3.75;74.39;93248.03;509160;28;2261;-68
2023/11/19 00:40:44;;;;;;;3.20;3.00;;;;;;;3.75;74.02;93250.00;509965;28;1911;-67
2023/11/19 00:40:59;;;;;;;2.85;2.65;;;;;;;3.75;74.12;93252.75;510481;28;2216;-67
2023/11/19 00:41:16;;;;;;;2.65;2.45;;;;;;;3.75;74.59;93255.47;510980;28;1852;-67
2023/11/19 00:41:32;;;;;;;3.25;2.53;;;;;;;3.75;74.27;93258.19;510220;28;2568;-67
2023/11/19 00:41:47;;;;;;;3.20;2.50;;;;;;;3.76;74.30;93262.44;509589;28;2037;-67
2023/11/19 00:42:03;;;;;;;2.72;2.53;;;;;;;3.64;74.58;93236.44;509573;28;2128;-66
2023/11/19 00:42:18;;;;;;;3.00;2.70;;;;;;;3.77;74.29;93261.16;510358;28;3136;-67
2023/11/19 00:42:34;;;;;;;3.57;3.27;;;;;;;3.77;74.02;93252.97;512694;28;1916;-67
2023/11/19 00:42:49;;;;;;;3.78;3.42;;;;;;;3.78;74.05;93254.47;511523;28;2061;-67
2023/11/19 00:43:05;;;;;;;3.20;2.90;;;;;;;3.78;74.21;93254.47;513060;28;1010;-67
2023/11/19 00:43:22;;;;;;;3.25;3.05;;;;;;;3.78;74.02;93251.72;510957;28;3066;-67
2023/11/19 00:43:37;;;;;;;3.40;3.17;;;;;;;3.79;74.42;93262.13;512465;28;934;-67
2023/11/19 00:43:53;;;;;;;3.47;3.17;;;;;;;3.80;74.29;93257.44;511989;28;2004;-67
2023/11/19 00:44:09;;;;;;;3.03;2.73;;;;;;;3.81;74.02;93265.09;512040;28;1129;-67
2023/11/19 00:44:25;;;;;;;2.92;2.67;;;;;;;3.82;74.31;93260.38;512948;28;1848;-67
2023/11/19 00:44:41;;;;;;;3.90;3.30;;;;;;;3.81;74.27;93259.63;512584;28;2367;-67
2023/11/19 00:44:57;;;;;;;3.88;3.22;;;;;;;3.82;74.78;93255.66;513129;28;1677;-67
2023/11/19 00:45:14;;;;;;;3.33;3.13;;;;;;;3.64;74.61;93231.00;511832;28;2261;-67
2023/11/19 00:45:29;;;;;;;4.30;4.00;;;;;;;3.82;74.91;93263.13;512427;28;3121;-67
2023/11/19 00:45:45;;;;;;;4.13;3.83;;;;;;;3.83;74.91;93261.88;508187;28;2178;-67
2023/11/19 00:46:00;;;;;;;3.80;3.60;;;;;;;3.82;74.79;93252.94;510083;28;1557;-67
2023/11/19 00:46:16;;;;;;;3.58;3.38;;;;;;;3.82;74.82;93252.94;509861;28;3614;-67
2023/11/19 00:46:32;;;;;;;3.27;3.07;;;;;;;3.77;75.00;93259.19;510397;28;1606;-67
2023/11/19 00:46:48;;;;;;;2.92;2.83;;;;;;;3.76;74.71;93260.44;508716;28;2303;-67
2023/11/19 00:47:05;;;;;;;2.80;2.70;;;;;;;3.77;75.10;93261.91;509437;28;1773;-67
2023/11/19 00:47:20;;;;;;;3.20;3.00;;;;;;;3.78;75.16;93260.66;511345;28;3268;-67
2023/11/19 00:47:36;;;;;;;3.17;3.08;;;;;;;3.79;75.08;93258.66;511870;28;1630;-67
2023/11/19 00:47:51;;;;;;;3.20;3.10;;;;;;;3.80;74.66;93257.44;511960;28;1709;-67
2023/11/19 00:48:07;;;;;;;3.30;3.10;;;;;;;3.79;74.70;93255.94;511504;28;2232;-67
2023/11/19 00:48:22;;;;;;;3.27;3.07;;;;;;;3.81;74.58;93256.91;510923;28;1665;-67
2023/11/19 00:48:37;;;;;;;3.20;3.00;;;;;;;3.82;74.84;93260.38;511008;28;1912;-67
2023/11/19 00:48:53;;;;;;;3.10;2.90;;;;;;;3.83;74.36;93259.16;512403;28;1936;-67
2023/11/19 00:49:08;;;;;;;3.08;2.97;;;;;;;3.81;74.88;93256.19;512874;28;1618;-67
2023/11/19 00:49:27;;;;;;;3.40;3.10;;;;;;;3.81;74.38;93256.91;510801;28;2242;-67
2023/11/19 00:49:42;;;;;;;4.60;3.23;;;;;;;3.82;74.31;93252.19;512639;28;2088;-69
2023/11/19 00:49:58;;;;;;;3.80;3.40;;;;;;;3.83;74.59;93248.94;511173;28;1751;-67
2023/11/19 00:50:13;;;;;;;3.40;3.20;;;;;;;3.85;74.85;93253.91;513246;28;2404;-67
2023/11/19 00:50:31;;;;;;;3.10;2.90;;;;;;;3.87;74.63;93253.41;511489;28;3080;-67
2023/11/19 00:50:46;;;;;;;3.30;3.10;;;;;;;3.88;74.98;93252.88;511584;28;1910;-67
2023/11/19 00:51:02;;;;;;;3.60;3.40;;;;;;;3.90;74.61;93250.38;512038;28;2068;-67
2023/11/19 00:51:17;;;;;;;3.45;3.25;;;;;;;3.89;74.50;93248.91;511825;28;910;-67
2023/11/19 00:51:33;;;;;;;2.93;2.73;;;;;;;3.89;74.36;93248.91;511377;28;3147;-67
2023/11/19 00:51:49;;;;;;;2.58;2.38;;;;;;;3.91;74.48;93249.13;512042;28;999;-67
2023/11/19 00:52:04;;;;;;;2.50;2.30;;;;;;;3.92;73.90;93252.63;512459;28;1701;-67
2023/11/19 00:52:21;;;;;;;2.70;2.50;;;;;;;3.94;73.58;93245.41;512395;28;1009;-67
2023/11/19 00:52:37;;;;;;;2.20;2.10;;;;;;;3.96;74.08;93253.06;512575;28;1938;-67
2023/11/19 00:52:53;;;;;;;2.65;2.03;;;;;;;3.97;73.75;93249.06;511490;28;1559;-67
2023/11/19 00:53:08;;;;;;;2.90;2.10;;;;;;;3.98;73.84;93239.63;511284;28;2635;-67
2023/11/19 00:53:24;;;;;;;2.30;2.10;;;;;;;3.97;73.34;93241.63;511070;28;1868;-67
2023/11/19 00:53:39;;;;;;;2.60;2.40;;;;;;;3.98;73.90;93231.44;513688;28;1049;-66
2023/11/19 00:53:55;;;;;;;2.95;2.85;;;;;;;3.98;73.59;93237.66;511502;28;1741;-66
2023/11/19 00:54:10;;;;;;;2.83;2.72;;;;;;;3.99;73.79;93241.84;512244;28;1753;-66
2023/11/19 00:54:26;;;;;;;2.80;2.60;;;;;;;4.01;73.56;93239.34;511707;28;2359;-66
2023/11/19 00:54:41;;;;;;;3.10;2.90;;;;;;;4.02;73.35;93237.38;512417;28;3374;-66
2023/11/19 00:54:57;;;;;;;2.97;2.87;;;;;;;4.03;73.82;93239.56;512255;28;1607;-66
2023/11/19 00:55:12;;;;;;;3.13;2.92;;;;;;;4.03;73.30;93238.84;510865;28;1625;-66
2023/11/19 00:55:28;;;;;;;3.20;3.00;;;;;;;4.05;73.33;93239.81;511281;28;3069;-66
2023/11/19 00:55:43;;;;;;;3.07;2.83;;;;;;;4.06;73.38;93241.28;510050;28;2370;-66
2023/11/19 00:55:58;;;;;;;3.30;2.83;;;;;;;4.07;73.58;93240.03;512240;28;3021;-66
2023/11/19 00:56:14;;;;;;;3.17;2.80;;;;;;;4.08;73.88;93244.25;512896;28;1082;-66
2023/11/19 00:56:30;;;;;;;2.97;2.78;;;;;;;4.09;73.40;93240.28;512937;28;2131;-66
2023/11/19 00:56:45;;;;;;;2.90;2.70;;;;;;;4.10;73.78;93244.47;511090;28;998;-66
2023/11/19 00:57:01;;;;;;;2.75;2.50;;;;;;;4.11;73.60;93243.25;512544;28;2924;-67
2023/11/19 00:57:16;;;;;;;3.30;3.03;;;;;;;4.12;73.47;93247.44;513157;28;1769;-67
2023/11/19 00:57:32;;;;;;;5.07;4.77;;;;;;;4.13;73.83;93243.47;512465;28;1871;-67
2023/11/19 00:57:48;;;;;;;5.78;5.47;;;;;;;4.13;73.51;93245.44;511281;28;1797;-66
2023/11/19 00:58:03;;;;;;;4.83;4.57;;;;;;;4.13;73.87;93234.53;513471;28;1942;-66
2023/11/19 00:58:18;;;;;;;4.50;4.30;;;;;;;4.15;74.33;93245.69;512709;28;1638;-66
2023/11/19 00:58:34;;;;;;;5.17;4.87;;;;;;;4.15;74.06;93240.97;511866;28;1750;-67
2023/11/19 00:58:49;;;;;;;5.22;4.90;;;;;;;4.17;74.40;93237.72;511279;28;1909;-67
2023/11/19 00:59:06;;;;;;;5.00;4.60;;;;;;;3.99;73.95;93219.25;510926;28;3309;-66
2023/11/19 00:59:21;;;;;;;8.07;5.20;;;;;;;4.18;74.17;93237.19;512352;28;1583;-67
2023/11/19 00:59:37;;;;;;;8.17;5.60;;;;;;;4.19;74.18;93240.66;514008;28;1946;-67
2023/11/19 00:59:52;;;;;;;5.60;5.20;;;;;;;4.20;74.21;93239.44;511466;28;2024;-67
2023/11/19 01:00:17;;;;;;;5.60;5.20;;;;;;;4.21;73.80;93243.63;511965;28;1960;-66
2023/11/19 01:00:34;;;;;;;4.85;4.45;;;;;;;4.23;74.06;93243.84;512131;28;1721;-67
2023/11/19 01:00:50;;;;;;;4.43;4.13;;;;;;;4.25;74.09;93244.06;512743;28;1558;-67
2023/11/19 01:01:05;;;;;;;3.20;3.00;;;;;;;4.26;73.78;93240.84;511827;28;2060;-66
2023/11/19 01:01:21;;;;;;;2.90;2.63;;;;;;;4.27;73.67;93238.84;510843;28;2378;-67
2023/11/19 01:01:37;;;;;;;3.90;3.10;;;;;;;4.26;73.81;93245.56;512386;28;2091;-67
2023/11/19 01:01:52;;;;;;;3.40;3.10;;;;;;;4.28;73.34;93246.53;511813;28;1923;-67
2023/11/19 01:02:08;;;;;;;3.00;2.80;;;;;;;4.29;73.29;93245.28;511336;28;3325;-66
2023/11/19 01:02:23;;;;;;;3.13;2.83;;;;;;;4.30;73.62;93249.50;511551;28;1882;-67
2023/11/19 01:02:38;;;;;;;3.13;2.83;;;;;;;4.31;73.10;93248.22;510368;28;2376;-67
2023/11/19 01:02:54;;;;;;;3.30;3.10;;;;;;;4.32;73.50;93252.47;511335;28;2312;-67
2023/11/19 01:03:10;;;;;;;4.25;4.05;;;;;;;4.33;73.28;93259.38;512681;28;1929;-67
2023/11/19 01:03:25;;;;;;;4.50;4.22;;;;;;;4.33;73.07;93251.19;510710;28;2400;-67
2023/11/19 01:03:41;;;;;;;3.77;3.47;;;;;;;4.34;73.04;93254.66;511674;28;1851;-67
2023/11/19 01:03:59;;;;;;;2.58;2.38;;;;;;;4.34;73.20;93252.69;513166;28;1622;-67
2023/11/19 01:04:15;;;;;;;2.33;2.13;;;;;;;4.35;72.90;93248.69;512811;28;1840;-67
2023/11/19 01:04:35;;;;;;;2.05;1.95;;;;;;;4.35;72.45;93248.69;512001;28;3136;-68
2023/11/19 01:04:50;;;;;;;2.00;1.90;;;;;;;4.35;72.83;93245.94;513039;28;1876;-68
2023/11/19 01:05:08;;;;;;;2.10;2.00;;;;;;;4.35;72.49;93251.41;512227;28;1942;-68
2023/11/19 01:05:24;;;;;;;2.10;2.00;;;;;;;4.37;72.73;93242.72;510633;28;1995;-67
2023/11/19 01:05:39;;;;;;;2.50;2.40;;;;;;;4.37;72.66;93243.47;511683;28;3347;-67
2023/11/19 01:05:55;;;;;;;3.07;2.87;;;;;;;4.39;73.14;93249.16;513494;28;1862;-67
2023/11/19 01:06:10;;;;;;;5.07;3.67;;;;;;;4.39;72.75;93248.41;510533;28;2054;-68
2023/11/19 01:06:32;;;;;;;5.70;3.87;;;;;;;4.40;72.65;93247.88;512806;28;1646;-67
2023/11/19 01:06:47;;;;;;;5.93;4.13;;;;;;;4.40;72.73;93253.34;510387;28;3014;-68
2023/11/19 01:07:04;;;;;;;5.73;4.90;;;;;;;4.41;72.97;93254.84;512154;28;2719;-66
2023/11/19 01:07:21;;;;;;;6.15;5.45;;;;;;;4.42;73.16;93250.84;511985;28;1649;-65
2023/11/19 01:07:37;;;;;;;7.10;6.47;;;;;;;4.44;72.69;93250.34;511529;28;2058;-65
2023/11/19 01:07:53;;;;;;;7.00;6.38;;;;;;;4.45;73.30;93262.75;510516;28;2133;-66
2023/11/19 01:08:09;;;;;;;7.00;5.97;;;;;;;4.46;72.74;93256.03;512987;28;2029;-66
2023/11/19 01:08:24;;;;;;;6.47;5.68;;;;;;;4.45;72.81;93255.28;512421;28;2021;-66
2023/11/19 01:08:40;;;;;;;5.60;5.10;;;;;;;4.46;73.21;93258.78;512431;28;2060;-66
2023/11/19 01:08:59;;;;;;;6.18;5.18;;;;;;;4.46;73.27;93254.03;509323;28;3551;-66
2023/11/19 01:09:14;;;;;;;5.28;4.78;;;;;;;4.48;73.50;93262.44;510866;28;1843;-65
2023/11/19 01:09:36;;;;;;;5.30;4.80;;;;;;;4.48;73.40;93259.72;509038;28;3328;-66
2023/11/19 01:09:51;;;;;;;6.43;5.05;;;;;;;4.50;73.43;93259.22;507874;28;2389;-66
2023/11/19 01:10:08;;;;;;;5.53;5.03;;;;;;;4.51;73.14;93257.97;510766;28;3089;-65
2023/11/19 01:10:24;;;;;;;5.28;4.85;;;;;;;4.52;73.37;93257.47;511252;28;2102;-65
2023/11/19 01:10:39;;;;;;;5.20;4.80;;;;;;;4.52;73.38;93260.19;509123;28;2002;-66
2023/11/19 01:10:55;;;;;;;4.87;4.47;;;;;;;4.52;73.02;93262.19;512796;28;1089;-65
2023/11/19 01:11:20;;;;;;;4.72;4.32;;;;;;;4.53;73.01;93256.19;512903;28;1949;-65
2023/11/19 01:11:36;;;;;;;4.75;4.35;;;;;;;4.54;73.07;93257.69;511774;28;3810;-65
2023/11/19 01:11:52;;;;;;;5.13;4.72;;;;;;;4.55;73.19;93253.69;512950;28;1954;-65
2023/11/19 01:12:08;;;;;;;5.18;4.78;;;;;;;4.56;72.96;93251.69;510603;28;1518;-65
2023/11/19 01:12:24;;;;;;;4.63;4.22;;;;;;;4.56;73.08;93259.91;507839;28;2707;-65
2023/11/19 01:12:39;;;;;;;4.07;3.78;;;;;;;4.57;73.13;93255.91;509237;28;947;-65
2023/11/19 01:12:54;;;;;;;4.33;4.03;;;;;;;4.57;73.14;93258.63;509129;28;2070;-65
2023/11/19 01:13:10;;;;;;;4.17;3.87;;;;;;;4.57;73.57;93262.09;508893;28;1880;-65
2023/11/19 01:13:25;;;;;;;3.95;3.65;;;;;;;4.59;73.13;93259.59;509063;28;1926;-65
2023/11/19 01:13:41;;;;;;;3.77;3.47;;;;;;;4.58;73.25;93263.59;509823;28;3264;-65
2023/11/19 01:13:56;;;;;;;3.30;3.10;;;;;;;4.60;73.04;93257.63;510409;28;1605;-65
2023/11/19 01:14:12;;;;;;;3.30;3.10;;;;;;;4.60;72.98;93257.63;511301;28;1865;-65
2023/11/19 01:14:28;;;;;;;3.20;3.00;;;;;;;4.60;72.83;93258.34;512058;28;1708;-65
2023/11/19 01:14:43;;;;;;;3.10;2.90;;;;;;;4.60;72.80;93257.63;512392;28;1956;-65
2023/11/19 01:14:59;;;;;;;3.30;3.10;;;;;;;4.61;73.11;93262.56;513244;28;2518;-65
2023/11/19 01:15:14;;;;;;;3.28;3.00;;;;;;;4.62;72.74;93266.03;511041;28;2062;-66
2023/11/19 01:15:30;;;;;;;3.20;2.90;;;;;;;4.63;72.34;93262.78;511293;28;1669;-68
2023/11/19 01:15:45;;;;;;;3.40;3.10;;;;;;;4.63;72.58;93268.25;509595;28;3035;-68
2023/11/19 01:16:02;;;;;;;3.60;3.30;;;;;;;4.65;72.20;93264.28;510283;28;1990;-68
2023/11/19 01:16:18;;;;;;;3.70;3.40;;;;;;;4.66;72.43;93263.75;509463;28;3290;-68
2023/11/19 01:16:34;;;;;;;3.53;3.22;;;;;;;4.67;72.03;93267.22;507511;28;3105;-68
2023/11/19 01:16:49;;;;;;;3.80;3.40;;;;;;;4.66;72.05;93263.75;508935;28;1918;-67
2023/11/19 01:17:05;;;;;;;3.87;3.57;;;;;;;4.66;71.68;93260.28;509262;28;1840;-67
2023/11/19 01:17:20;;;;;;;3.88;3.58;;;;;;;4.66;71.70;93261.00;508719;28;2000;-66
2023/11/19 01:17:39;;;;;;;4.07;3.67;;;;;;;4.67;71.56;93259.78;510519;28;998;-67
2023/11/19 01:17:54;;;;;;;4.10;3.63;;;;;;;4.66;72.02;93258.28;509881;28;1653;-67
2023/11/19 01:18:10;;;;;;;4.00;3.70;;;;;;;4.66;71.96;93255.53;508382;28;1026;-68